Philadelphia, Pennsylvania
Traffic Map
Current Weather Conditions
Philadelphia, Pennsylvania
Overcast
Overcast
68°
Feels Like: 68°
Wind Chill: 68° Ceiling: 4400
Heat Index: 68° Visibility: 10mi
Dew Point: 62° Wind: 6mph
Humidity: 81% Direction: 170° (S)
Pressure: 30.25in Gusts: 0mph
Raw Report DataKPHL 211254Z 17005KT 10SM FEW021 BKN044 OVC065 20/17 A3025 RMK AO2 SLP243 T02000167
Traffic Incident Summary
Active as of:
Severity:
Category:
InformationThere was an issue retrieving the traffic information for this location. Please try a different location or try again shortly.
Advertisements